createdAt,value
2022-10-22T00:01:03.378Z,9.38
2022-10-22T00:03:31.439Z,10.07
2022-10-22T00:05:59.377Z,10.55
2022-10-22T00:08:27.264Z,9.70
2022-10-22T00:10:55.081Z,8.98
2022-10-22T00:13:24.687Z,10.63
2022-10-22T00:15:52.539Z,10.05
2022-10-22T00:18:20.356Z,10.32
2022-10-22T00:20:48.154Z,10.38
2022-10-22T00:23:15.969Z,10.38
2022-10-22T00:25:43.831Z,10.23
2022-10-22T00:28:12.589Z,10.50
2022-10-22T00:30:42.119Z,10.02
2022-10-22T00:33:10.023Z,9.57
2022-10-22T00:35:37.891Z,9.13
2022-10-22T00:38:06.191Z,9.95
2022-10-22T00:40:34.029Z,11.07
2022-10-22T00:43:01.894Z,10.85
2022-10-22T00:45:30.132Z,10.77
2022-10-22T00:48:02.686Z,10.15
2022-10-22T00:50:35.415Z,9.93
2022-10-22T00:53:05.406Z,9.93
2022-10-22T00:55:34.205Z,9.45
2022-10-22T00:58:05.382Z,9.90
2022-10-22T01:00:33.383Z,9.77
2022-10-22T01:03:02.813Z,9.77
2022-10-22T01:05:40.401Z,11.60
2022-10-22T01:10:55.504Z,11.02
2022-10-22T01:13:32.995Z,11.27
2022-10-22T01:16:09.710Z,11.75
2022-10-22T01:18:48.879Z,10.63
2022-10-22T01:21:26.244Z,10.23
2022-10-22T01:24:10.058Z,10.18
2022-10-22T01:26:53.095Z,11.90
2022-10-22T01:29:34.659Z,10.60
2022-10-22T01:32:06.220Z,10.40
2022-10-22T01:34:35.507Z,10.48
2022-10-22T01:37:04.623Z,10.63
2022-10-22T01:39:33.288Z,10.35
2022-10-22T01:42:01.104Z,10.90
2022-10-22T01:44:32.054Z,10.20
2022-10-22T01:47:13.984Z,10.48
2022-10-22T01:50:03.823Z,10.73
2022-10-22T01:52:47.656Z,10.65
2022-10-22T01:55:26.321Z,9.93
2022-10-22T01:58:09.102Z,9.63
2022-10-22T02:00:41.158Z,10.30
2022-10-22T02:03:15.643Z,10.43
2022-10-22T02:05:48.575Z,10.07
2022-10-22T02:08:20.335Z,10.38
2022-10-22T02:10:49.637Z,10.15
2022-10-22T02:13:22.268Z,10.60
2022-10-22T02:15:53.532Z,11.13
2022-10-22T02:18:24.799Z,10.05
2022-10-22T02:20:54.435Z,9.75
2022-10-22T02:23:23.217Z,10.55
2022-10-22T02:25:58.481Z,10.65
2022-10-22T02:28:34.961Z,9.60
2022-10-22T02:31:09.343Z,9.90
2022-10-22T02:33:43.418Z,10.45
2022-10-22T02:36:12.678Z,10.43
2022-10-22T02:38:43.170Z,9.20
2022-10-22T02:41:11.523Z,9.15
2022-10-22T02:43:43.819Z,11.05
2022-10-22T02:46:13.369Z,10.38
2022-10-22T02:48:41.250Z,10.38
2022-10-22T02:51:09.070Z,10.48
2022-10-22T02:53:36.932Z,9.45
2022-10-22T02:56:04.898Z,9.57
2022-10-22T02:58:32.755Z,10.57
2022-10-22T03:01:00.636Z,10.02
2022-10-22T03:03:29.852Z,9.68
2022-10-22T03:05:57.671Z,9.82
2022-10-22T03:08:25.541Z,10.40
2022-10-22T03:10:53.405Z,10.02
2022-10-22T03:13:21.306Z,10.55
2022-10-22T03:15:50.343Z,9.75
2022-10-22T03:18:18.542Z,10.07
2022-10-22T03:20:47.712Z,9.88
2022-10-22T03:23:17.990Z,10.57
2022-10-22T03:25:48.136Z,8.80
2022-10-22T03:28:18.304Z,9.55
2022-10-22T03:30:46.150Z,9.40
2022-10-22T03:33:14.021Z,10.55
2022-10-22T03:35:46.195Z,9.77
2022-10-22T03:38:16.048Z,9.52
2022-10-22T03:40:45.230Z,9.27
2022-10-22T03:43:13.563Z,9.95
2022-10-22T03:45:41.534Z,9.43
2022-10-22T03:48:09.425Z,8.85
2022-10-22T03:50:37.369Z,9.38
2022-10-22T03:53:07.120Z,8.85
2022-10-22T03:55:36.289Z,9.52
2022-10-22T03:58:04.123Z,9.30
2022-10-22T04:00:31.956Z,9.77
2022-10-22T04:02:59.784Z,9.55
2022-10-22T04:05:27.656Z,9.30
2022-10-22T04:07:55.506Z,8.43
2022-10-22T04:10:23.300Z,9.18
2022-10-22T04:12:52.552Z,9.85
2022-10-22T04:15:20.389Z,9.63
2022-10-22T04:17:48.270Z,8.60
2022-10-22T04:20:16.122Z,8.95
2022-10-22T04:22:43.938Z,10.00
2022-10-22T04:25:11.783Z,10.45
2022-10-22T04:27:39.876Z,9.48
2022-10-22T04:30:10.713Z,9.68
2022-10-22T04:32:38.581Z,9.95
2022-10-22T04:35:07.030Z,9.73
2022-10-22T04:37:35.303Z,10.02
2022-10-22T04:40:03.139Z,8.98
2022-10-22T04:42:31.009Z,9.60
2022-10-22T04:44:58.844Z,9.10
2022-10-22T04:47:28.093Z,9.48
2022-10-22T04:49:55.938Z,9.25
2022-10-22T04:52:23.783Z,9.10
2022-10-22T04:54:51.627Z,9.70
2022-10-22T04:57:19.433Z,9.95
2022-10-22T04:59:47.313Z,10.02
2022-10-22T05:02:15.132Z,9.90
2022-10-22T05:04:46.262Z,9.25
2022-10-22T05:07:14.120Z,9.10
2022-10-22T05:09:42.213Z,9.40
2022-10-22T05:12:10.032Z,9.30
2022-10-22T05:14:40.292Z,10.65
2022-10-22T05:17:10.523Z,9.57
2022-10-22T05:19:38.341Z,9.30
2022-10-22T05:22:07.568Z,9.20
2022-10-22T05:24:37.123Z,9.57
2022-10-22T05:27:05.796Z,9.90
2022-10-22T05:29:33.899Z,9.77
2022-10-22T05:32:01.831Z,9.45
2022-10-22T05:34:29.687Z,9.18
2022-10-22T05:36:57.587Z,9.93
2022-10-22T05:39:26.926Z,9.80
2022-10-22T05:41:54.929Z,9.50
2022-10-22T05:44:22.802Z,8.85
2022-10-22T05:46:50.755Z,9.10
2022-10-22T05:49:18.643Z,10.38
2022-10-22T05:51:46.814Z,9.10
2022-10-22T05:54:18.483Z,9.52
2022-10-22T05:56:47.864Z,9.50
2022-10-22T05:59:15.800Z,8.85
2022-10-22T06:01:43.663Z,8.63
2022-10-22T06:04:12.917Z,9.35
2022-10-22T06:06:45.310Z,9.38
2022-10-22T06:09:18.424Z,10.13
2022-10-22T06:11:48.832Z,9.10
2022-10-22T06:14:17.491Z,9.48
2022-10-22T06:16:45.451Z,9.23
2022-10-22T06:19:15.035Z,9.25
2022-10-22T06:21:43.167Z,9.18
2022-10-22T06:24:12.209Z,8.82
2022-10-22T06:26:40.196Z,9.85
2022-10-22T06:29:09.772Z,9.73
2022-10-22T06:31:37.929Z,9.32
2022-10-22T06:34:06.678Z,9.60
2022-10-22T06:36:34.947Z,10.10
2022-10-22T06:39:02.958Z,10.70
2022-10-22T06:41:30.835Z,9.95
2022-10-22T06:44:00.051Z,10.57
2022-10-22T06:46:29.976Z,9.98
2022-10-22T06:48:59.811Z,10.48
2022-10-22T06:51:29.028Z,10.55
2022-10-22T06:53:58.104Z,10.18
2022-10-22T06:56:27.930Z,10.38
2022-10-22T06:58:57.529Z,10.07
2022-10-22T07:01:27.371Z,10.20
2022-10-22T07:03:56.647Z,10.45
2022-10-22T07:06:25.803Z,9.80
2022-10-22T07:08:55.243Z,10.23
2022-10-22T07:11:24.961Z,9.85
2022-10-22T07:13:55.287Z,10.15
2022-10-22T07:16:28.040Z,10.38
2022-10-22T07:19:01.670Z,10.93
2022-10-22T07:21:29.710Z,10.60
2022-10-22T07:23:57.894Z,10.10
2022-10-22T07:26:28.159Z,10.93
2022-10-22T07:28:56.201Z,10.38
2022-10-22T07:31:24.588Z,10.90
2022-10-22T07:33:52.655Z,10.88
2022-10-22T07:36:21.943Z,10.23
2022-10-22T07:38:54.310Z,11.30
2022-10-22T07:41:23.611Z,10.52
2022-10-22T07:43:51.888Z,9.68
2022-10-22T07:46:20.016Z,11.25
2022-10-22T07:48:47.903Z,11.05
2022-10-22T07:51:16.289Z,10.57
2022-10-22T07:53:45.536Z,10.38
2022-10-22T07:56:13.927Z,10.35
2022-10-22T07:58:42.208Z,11.48
2022-10-22T08:01:10.490Z,10.20
2022-10-22T08:03:38.424Z,10.20
2022-10-22T08:06:06.939Z,10.40
2022-10-22T08:08:34.868Z,10.25
2022-10-22T08:11:04.219Z,10.20
2022-10-22T08:13:32.372Z,9.73
2022-10-22T08:16:01.755Z,9.48
2022-10-22T08:18:30.349Z,9.90
2022-10-22T08:20:58.526Z,10.52
2022-10-22T08:23:28.674Z,10.27
2022-10-22T08:25:57.923Z,9.88
2022-10-22T08:28:28.721Z,9.80
2022-10-22T08:30:56.661Z,9.98
2022-10-22T08:33:24.518Z,9.60
2022-10-22T08:35:53.083Z,9.45
2022-10-22T08:38:21.604Z,9.35
2022-10-22T08:40:52.674Z,9.80
2022-10-22T08:43:47.412Z,9.90
2022-10-22T08:46:33.992Z,10.15
2022-10-22T08:49:04.425Z,9.88
2022-10-22T08:51:35.452Z,9.63
2022-10-22T08:54:24.311Z,9.40
2022-10-22T08:57:02.547Z,9.88
2022-10-22T08:59:38.769Z,10.00
2022-10-22T09:02:23.855Z,9.82
2022-10-22T09:04:58.204Z,9.63
2022-10-22T09:07:26.308Z,9.75
2022-10-22T09:09:58.355Z,9.52
2022-10-22T09:12:28.151Z,9.73
2022-10-22T09:14:57.401Z,9.55
2022-10-22T09:17:35.315Z,9.48
2022-10-22T09:20:12.932Z,9.50
2022-10-22T09:22:47.828Z,8.68
2022-10-22T09:25:21.332Z,9.48
2022-10-22T09:27:50.642Z,9.48
2022-10-22T09:30:21.975Z,9.75
2022-10-22T09:32:53.093Z,10.15
2022-10-22T09:35:25.164Z,10.15
2022-10-22T09:37:55.396Z,9.82
2022-10-22T09:40:24.722Z,9.75
2022-10-22T09:42:52.650Z,10.23
2022-10-22T09:45:25.668Z,9.57
2022-10-22T09:48:12.746Z,9.43
2022-10-22T09:50:45.259Z,9.52
2022-10-22T09:53:19.018Z,10.17
2022-10-22T09:55:52.727Z,8.20
2022-10-22T09:58:21.021Z,9.27
2022-10-22T10:00:54.613Z,9.35
2022-10-22T10:03:25.404Z,8.32
2022-10-22T10:05:57.351Z,8.73
2022-10-22T10:08:27.175Z,9.13
2022-10-22T10:11:00.489Z,9.23
2022-10-22T10:16:14.694Z,8.85
2022-10-22T10:18:57.327Z,10.25
2022-10-22T10:21:36.028Z,9.80
2022-10-22T10:24:13.043Z,10.15
2022-10-22T10:26:47.660Z,9.93
2022-10-22T10:29:29.862Z,8.77
2022-10-22T10:32:11.140Z,9.95
2022-10-22T10:34:47.327Z,10.32
2022-10-22T10:37:22.915Z,9.88
2022-10-22T10:40:11.280Z,9.88
2022-10-22T10:42:45.054Z,9.63
2022-10-22T10:45:21.258Z,10.57
2022-10-22T10:48:24.966Z,10.82
2022-10-22T10:51:04.579Z,9.90
2022-10-22T10:53:47.682Z,10.05
2022-10-22T10:56:29.711Z,9.85
2022-10-22T10:59:08.467Z,11.38
2022-10-22T11:01:41.652Z,11.60
2022-10-22T11:04:42.966Z,10.77
2022-10-22T11:07:23.270Z,11.75
2022-10-22T11:10:09.883Z,11.00
2022-10-22T11:12:42.851Z,11.63
2022-10-22T11:17:48.517Z,10.50
2022-10-22T11:20:21.244Z,11.00
2022-10-22T11:23:17.445Z,11.57
2022-10-22T11:25:45.576Z,11.35
2022-10-22T11:28:17.965Z,11.00
2022-10-22T11:30:50.671Z,10.07
2022-10-22T11:33:22.631Z,10.02
2022-10-22T11:35:53.809Z,10.95
2022-10-22T11:38:26.266Z,10.68
2022-10-22T11:40:59.934Z,9.47
2022-10-22T11:43:30.646Z,9.48
2022-10-22T11:46:03.749Z,9.90
2022-10-22T11:48:38.097Z,9.40
2022-10-22T11:51:34.075Z,9.00
2022-10-22T11:54:04.600Z,8.82
2022-10-22T11:56:38.470Z,8.43
2022-10-22T11:59:30.072Z,8.32
2022-10-22T12:01:57.932Z,7.82
2022-10-22T12:04:41.346Z,8.20
2022-10-22T12:07:34.956Z,7.32
2022-10-22T12:10:14.968Z,7.88
2022-10-22T12:12:45.482Z,6.33
2022-10-22T12:15:25.288Z,6.07
2022-10-22T12:18:00.434Z,5.95
2022-10-22T12:20:29.533Z,6.18
2022-10-22T12:22:59.885Z,6.03
2022-10-22T12:25:35.739Z,4.85
2022-10-22T12:28:03.847Z,5.88
2022-10-22T12:30:34.732Z,5.38
2022-10-22T12:33:04.951Z,4.38
2022-10-22T12:35:35.628Z,4.75
2022-10-22T12:38:13.894Z,3.97
2022-10-22T12:40:45.966Z,5.05
2022-10-22T12:43:18.614Z,4.95
2022-10-22T12:45:48.507Z,4.07
2022-10-22T12:48:19.800Z,3.85
2022-10-22T12:50:50.582Z,4.03
2022-10-22T12:53:23.532Z,3.70
2022-10-22T12:55:53.412Z,3.50
2022-10-22T12:58:26.720Z,3.53
2022-10-22T13:03:29.454Z,2.90
2022-10-22T13:05:57.462Z,3.20
2022-10-22T13:08:29.144Z,2.75
2022-10-22T13:10:57.028Z,3.00
2022-10-22T13:13:35.435Z,2.60
2022-10-22T13:16:18.443Z,2.85
2022-10-22T13:18:47.814Z,2.42
2022-10-22T13:21:26.359Z,2.95
2022-10-22T13:23:58.560Z,2.30
2022-10-22T13:26:33.145Z,2.40
2022-10-22T13:29:02.354Z,2.58
2022-10-22T13:31:33.559Z,2.40
2022-10-22T13:34:09.786Z,2.20
2022-10-22T13:36:39.907Z,2.95
2022-10-22T13:39:18.117Z,2.20
2022-10-22T13:41:45.995Z,2.55
2022-10-22T13:44:13.820Z,2.58
2022-10-22T13:46:42.906Z,2.40
2022-10-22T13:49:16.291Z,2.33
2022-10-22T13:51:44.642Z,1.80
2022-10-22T13:54:17.867Z,2.17
2022-10-22T13:59:14.202Z,2.17
2022-10-22T14:01:43.036Z,2.30
2022-10-22T14:04:14.759Z,2.28
2022-10-22T14:06:42.589Z,3.67
2022-10-22T14:09:16.659Z,3.10
2022-10-22T14:11:44.554Z,3.25
2022-10-22T14:14:14.298Z,3.03
2022-10-22T14:16:42.432Z,3.80
2022-10-22T14:19:15.470Z,3.35
2022-10-22T14:21:43.387Z,2.92
2022-10-22T14:24:13.232Z,2.60
2022-10-22T14:26:42.960Z,2.10
2022-10-22T14:29:11.721Z,2.58
2022-10-22T14:36:43.564Z,2.40
2022-10-22T14:39:11.571Z,2.40
2022-10-22T14:41:39.633Z,2.20
2022-10-22T14:44:12.551Z,2.30
2022-10-22T14:46:42.588Z,4.20
2022-10-22T14:49:10.502Z,3.25
2022-10-22T14:51:38.327Z,4.55
2022-10-22T14:54:06.182Z,4.22
2022-10-22T14:56:34.043Z,3.45
2022-10-22T14:59:01.965Z,2.75
2022-10-22T15:01:31.254Z,3.13
2022-10-22T15:03:59.058Z,3.70
2022-10-22T15:06:26.887Z,6.80
2022-10-22T15:08:54.766Z,10.98
2022-10-22T15:11:22.850Z,6.38
2022-10-22T15:13:50.678Z,5.57
2022-10-22T15:16:19.439Z,5.32
2022-10-22T15:18:48.597Z,4.30
2022-10-22T15:21:19.440Z,3.80
2022-10-22T15:23:47.661Z,3.90
2022-10-22T15:26:15.780Z,4.35
2022-10-22T15:28:44.147Z,6.15
2022-10-22T15:31:13.956Z,19.73
2022-10-22T15:33:42.930Z,13.45
2022-10-22T15:36:14.299Z,15.02
2022-10-22T15:38:42.164Z,14.98
2022-10-22T15:41:12.393Z,12.55
2022-10-22T15:43:40.317Z,18.98
2022-10-22T15:46:13.909Z,10.80
2022-10-22T15:48:42.269Z,7.18
2022-10-22T15:51:13.666Z,15.57
2022-10-22T15:53:42.293Z,17.33
2022-10-22T15:56:11.666Z,9.60
2022-10-22T15:58:39.485Z,7.30
2022-10-22T16:01:08.794Z,7.53
2022-10-22T16:03:37.000Z,7.50
2022-10-22T16:06:05.419Z,6.22
2022-10-22T16:08:35.272Z,7.25
2022-10-22T16:11:03.299Z,5.97
2022-10-22T16:13:31.354Z,4.63
2022-10-22T16:15:59.165Z,6.88
2022-10-22T16:18:27.047Z,7.18
2022-10-22T16:20:54.900Z,10.40
2022-10-22T16:23:22.739Z,7.18
2022-10-22T16:25:51.897Z,6.07
2022-10-22T16:28:19.744Z,4.88
2022-10-22T16:30:47.578Z,4.85
2022-10-22T16:33:15.459Z,4.00
2022-10-22T16:35:43.533Z,4.40
2022-10-22T16:38:12.524Z,3.72
2022-10-22T16:40:40.356Z,4.72
2022-10-22T16:43:09.551Z,4.28
2022-10-22T16:45:37.446Z,3.30
2022-10-22T16:48:05.646Z,3.25
2022-10-22T16:50:33.499Z,3.58
2022-10-22T16:53:01.305Z,3.72
2022-10-22T16:55:29.142Z,3.33
2022-10-22T16:57:57.083Z,4.18
2022-10-22T17:00:26.300Z,3.90
2022-10-22T17:02:54.297Z,3.28
2022-10-22T17:05:22.766Z,3.30
2022-10-22T17:07:51.492Z,3.92
2022-10-22T17:10:20.755Z,3.20
2022-10-22T17:12:49.610Z,3.90
2022-10-22T17:15:17.544Z,5.57
2022-10-22T17:17:50.863Z,4.13
2022-10-22T17:22:49.439Z,4.63
2022-10-22T17:25:21.931Z,4.65
2022-10-22T17:27:50.170Z,3.67
2022-10-22T17:30:23.473Z,3.90
2022-10-22T17:32:55.853Z,5.80
2022-10-22T17:35:23.691Z,4.60
2022-10-22T17:37:51.591Z,4.43
2022-10-22T17:40:19.550Z,5.55
2022-10-22T17:42:49.246Z,5.43
2022-10-22T17:45:17.281Z,5.25
2022-10-22T17:47:45.117Z,4.85
2022-10-22T17:50:14.400Z,4.00
2022-10-22T17:52:42.897Z,4.45
2022-10-22T17:55:13.146Z,4.22
2022-10-22T17:57:41.014Z,3.88
2022-10-22T18:00:10.243Z,4.10
2022-10-22T18:02:38.104Z,5.38
2022-10-22T18:05:06.680Z,4.07
2022-10-22T18:07:35.899Z,3.92
2022-10-22T18:10:03.989Z,4.10
2022-10-22T18:12:31.776Z,3.80
2022-10-22T18:14:59.660Z,5.55
2022-10-22T18:17:27.581Z,5.55
2022-10-22T18:19:55.454Z,5.32
2022-10-22T18:22:23.330Z,5.50
2022-10-22T18:24:53.025Z,5.55
2022-10-22T18:27:20.872Z,6.05
2022-10-22T18:29:50.415Z,6.00
2022-10-22T18:32:18.272Z,5.40
2022-10-22T18:34:46.180Z,5.03
2022-10-22T18:37:13.987Z,4.65
2022-10-22T18:39:41.813Z,4.10
2022-10-22T18:42:11.075Z,3.75
2022-10-22T18:44:38.978Z,3.05
2022-10-22T18:47:08.610Z,3.83
2022-10-22T18:49:36.415Z,3.25
2022-10-22T18:52:04.654Z,4.00
2022-10-22T18:54:32.493Z,3.38
2022-10-22T18:57:02.841Z,4.40
2022-10-22T18:59:32.640Z,4.03
2022-10-22T19:02:00.520Z,4.45
2022-10-22T19:04:33.232Z,4.05
2022-10-22T19:07:01.249Z,4.82
2022-10-22T19:09:29.135Z,4.20
2022-10-22T19:11:57.037Z,5.82
2022-10-22T19:14:25.055Z,4.88
2022-10-22T19:16:54.295Z,4.68
2022-10-22T19:19:22.629Z,4.43
2022-10-22T19:21:50.758Z,3.85
2022-10-22T19:24:20.774Z,4.30
2022-10-22T19:26:49.625Z,3.83
2022-10-22T19:29:19.357Z,3.90
2022-10-22T19:31:47.596Z,3.53
2022-10-22T19:34:16.809Z,3.95
2022-10-22T19:36:44.635Z,3.42
2022-10-22T19:39:16.226Z,4.07
2022-10-22T19:41:44.761Z,3.60
2022-10-22T19:44:12.631Z,3.50
2022-10-22T19:46:40.462Z,3.67
2022-10-22T19:49:08.334Z,3.20
2022-10-22T19:51:37.857Z,4.05
2022-10-22T19:54:08.871Z,4.55
2022-10-22T19:56:37.669Z,3.83
2022-10-22T19:59:06.529Z,3.15
2022-10-22T20:01:34.687Z,3.63
2022-10-22T20:04:02.580Z,4.03
2022-10-22T20:06:30.950Z,3.58
2022-10-22T20:09:00.448Z,4.03
2022-10-22T20:11:30.074Z,3.72
2022-10-22T20:13:58.630Z,3.22
2022-10-22T20:16:29.937Z,3.63
2022-10-22T20:19:01.052Z,3.95
2022-10-22T20:21:28.880Z,4.03
2022-10-22T20:23:57.418Z,4.53
2022-10-22T20:26:28.243Z,3.58
2022-10-22T20:28:56.618Z,4.28
2022-10-22T20:31:27.828Z,4.15
2022-10-22T20:33:57.471Z,3.72
2022-10-22T20:36:26.420Z,3.50
2022-10-22T20:38:54.268Z,4.40
2022-10-22T20:41:23.869Z,3.67
2022-10-22T20:43:53.532Z,3.67
2022-10-22T20:46:23.991Z,3.28
2022-10-22T20:48:52.575Z,3.45
2022-10-22T20:51:21.031Z,2.88
2022-10-22T20:53:49.013Z,2.78
2022-10-22T20:56:17.542Z,3.55
2022-10-22T20:58:48.839Z,3.58
2022-10-22T21:01:21.793Z,2.65
2022-10-22T21:03:49.965Z,3.17
2022-10-22T21:06:17.903Z,3.33
2022-10-22T21:08:45.873Z,3.03
2022-10-22T21:11:13.675Z,2.65
2022-10-22T21:13:41.553Z,2.78
2022-10-22T21:16:10.716Z,3.10
2022-10-22T21:18:40.002Z,3.05
2022-10-22T21:21:08.616Z,3.28
2022-10-22T21:23:37.378Z,3.22
2022-10-22T21:26:05.816Z,4.57
2022-10-22T21:28:35.716Z,3.25
2022-10-22T21:31:04.690Z,3.28
2022-10-22T21:33:32.811Z,3.50
2022-10-22T21:36:02.017Z,3.15
2022-10-22T21:38:29.852Z,3.67
2022-10-22T21:40:57.675Z,3.42
2022-10-22T21:43:25.630Z,3.40
2022-10-22T21:46:05.411Z,3.92
2022-10-22T21:48:35.952Z,4.10
2022-10-22T21:51:09.156Z,4.03
2022-10-22T21:53:37.180Z,3.50
2022-10-22T21:56:05.934Z,2.97
2022-10-22T21:58:35.192Z,3.22
2022-10-22T22:01:03.094Z,3.00
2022-10-22T22:03:31.049Z,3.05
2022-10-22T22:05:59.776Z,3.00
2022-10-22T22:08:29.213Z,3.50
2022-10-22T22:11:03.092Z,3.10
2022-10-22T22:13:33.998Z,3.10
2022-10-22T22:16:02.878Z,3.03
2022-10-22T22:18:31.185Z,3.30
2022-10-22T22:20:59.734Z,2.90
2022-10-22T22:23:28.966Z,3.00
2022-10-22T22:25:59.656Z,3.20
2022-10-22T22:28:27.624Z,3.05
2022-10-22T22:30:55.518Z,3.03
2022-10-22T22:33:23.398Z,3.08
2022-10-22T22:35:51.432Z,3.78
2022-10-22T22:38:19.352Z,3.20
2022-10-22T22:40:48.563Z,3.08
2022-10-22T22:43:16.415Z,3.92
2022-10-22T22:45:44.359Z,3.00
2022-10-22T22:48:12.217Z,3.20
2022-10-22T22:50:40.048Z,3.33
2022-10-22T22:53:08.008Z,3.75
2022-10-22T22:55:36.140Z,3.10
2022-10-22T22:58:05.386Z,3.30
2022-10-22T23:00:33.267Z,3.17
2022-10-22T23:03:01.167Z,3.30
2022-10-22T23:05:28.985Z,3.80
2022-10-22T23:07:57.298Z,3.35
2022-10-22T23:10:25.087Z,3.35
2022-10-22T23:12:52.928Z,3.30
2022-10-22T23:15:22.088Z,3.40
2022-10-22T23:17:49.891Z,3.28
2022-10-22T23:20:17.920Z,3.80
2022-10-22T23:22:45.782Z,4.00
2022-10-22T23:25:13.582Z,4.00
2022-10-22T23:27:41.635Z,3.65
2022-10-22T23:30:10.857Z,3.60
2022-10-22T23:32:40.119Z,3.75
2022-10-22T23:35:08.541Z,3.85
2022-10-22T23:37:36.331Z,3.55
2022-10-22T23:40:04.514Z,3.72
2022-10-22T23:42:32.383Z,4.40
2022-10-22T23:45:00.234Z,4.18
2022-10-22T23:47:28.188Z,3.67
2022-10-22T23:49:57.348Z,3.67
2022-10-22T23:52:25.275Z,3.70
2022-10-22T23:54:53.091Z,4.15
2022-10-22T23:57:20.933Z,3.50
2022-10-22T23:59:48.728Z,3.58
